Terminal Aerodrome Forecast
Issued by NWS

Current Version | Previous Version | Graphics & Text | Print | Product List | Glossary On
Versions: 1 2 3 4 5 6 7 8 9 10 11 12 13 14 15 16 17 18 19 20 21 22 23
435
FTUS41 KPBZ 152320
TAFHLG
TAF
KHLG 152320Z 1600/1624 19007KT 6SM -RA SCT025 OVC045
     FM160230 21010KT P6SM OVC015
     FM160400 23010KT P6SM OVC008
     FM160700 24010KT P6SM OVC015
     FM161400 28012G24KT P6SM BKN025=

USA.gov is the U.S. government's official web portal to all federal, state and local government web resources and services.